Time;durP1;ratioP1;P1;durP2;ratioP2;P2;SDS_P1;SDS_P2;PMS_P1;PMS_P2;Temp;Humidity;BMP_temperature;BMP_pressure;BME280_temperature;BME280_humidity;BME280_pressure;Samples;Min_cycle;Max_cycle;Signal;HPM_P1;HPM_P2
2022/06/21 00:00:05;;;;;;;11.30;2.42;;;11.80;99.90;;;;;;6143172;23;20009;-94
2022/06/21 00:02:31;;;;;;;7.75;2.33;;;11.80;99.90;;;;;;6168279;23;20060;-95
2022/06/21 00:04:58;;;;;;;7.55;2.40;;;11.90;99.90;;;;;;6147895;23;20063;-92
2022/06/21 00:07:33;;;;;;;6.13;2.05;;;11.50;99.90;;;;;;6163292;23;20024;-94
2022/06/21 00:10:06;;;;;;;5.03;2.13;;;11.80;99.90;;;;;;6192788;23;20028;-95
2022/06/21 00:12:36;;;;;;;8.15;2.22;;;12.20;99.90;;;;;;6191851;23;20072;-95
2022/06/21 00:15:03;;;;;;;7.80;2.42;;;11.70;99.90;;;;;;6148793;23;20423;-94
2022/06/21 00:17:30;;;;;;;18.35;3.10;;;11.70;99.90;;;;;;6127551;23;20016;-94
2022/06/21 00:19:56;;;;;;;7.35;2.20;;;11.90;99.90;;;;;;6155746;23;20013;-93
2022/06/21 00:22:22;;;;;;;7.63;2.20;;;11.50;99.90;;;;;;6126702;23;20008;-95
2022/06/21 00:24:51;;;;;;;8.75;2.40;;;11.50;99.90;;;;;;6121027;23;20453;-94
2022/06/21 00:27:21;;;;;;;5.70;2.22;;;11.50;99.90;;;;;;6148841;23;20013;-94
2022/06/21 00:29:49;;;;;;;10.45;2.40;;;11.50;99.90;;;;;;6187101;23;20029;-94
2022/06/21 00:32:20;;;;;;;6.20;2.00;;;11.50;99.90;;;;;;6183113;23;20016;-95
2022/06/21 00:34:47;;;;;;;5.63;2.15;;;11.50;99.90;;;;;;6187794;23;20012;-93
2022/06/21 00:37:21;;;;;;;6.57;2.45;;;11.40;99.90;;;;;;6169930;23;20083;-95
2022/06/21 00:39:51;;;;;;;6.95;2.10;;;11.40;99.90;;;;;;6181191;23;20020;-94
2022/06/21 00:42:30;;;;;;;4.90;2.03;;;11.50;99.90;;;;;;6165991;23;20016;-95
2022/06/21 00:45:06;;;;;;;5.15;2.50;;;11.30;99.90;;;;;;6212116;23;20067;-93
2022/06/21 00:47:57;;;;;;;4.90;2.15;;;11.20;99.90;;;;;;6187905;23;20043;-95
2022/06/21 00:50:44;;;;;;;6.25;3.38;;;11.60;99.90;;;;;;6187033;23;20019;-95
2022/06/21 00:53:57;;;;;;;8.57;2.40;;;11.30;99.90;;;;;;6212873;23;20084;-95
2022/06/21 00:56:39;;;;;;;10.80;2.90;;;10.80;99.90;;;;;;6165236;23;20013;-95
2022/06/21 00:59:21;;;;;;;7.22;2.15;;;11.20;99.90;;;;;;6186921;23;20013;-96
2022/06/21 01:01:56;;;;;;;6.30;2.45;;;11.20;99.90;;;;;;6192150;23;20016;-95
2022/06/21 01:08:10;;;;;;;6.50;2.30;;;11.20;99.90;;;;;;6233468;23;20008;-95
2022/06/21 01:27:33;;;;;;;8.75;2.72;;;11.20;99.90;;;;;;6220929;22;20034;-93
2022/06/21 01:30:07;;;;;;;13.77;3.45;;;11.30;99.90;;;;;;6158924;23;20068;-92
2022/06/21 01:33:13;;;;;;;11.30;3.28;;;11.20;99.90;;;;;;6168388;23;20024;-94
2022/06/21 01:35:56;;;;;;;7.47;3.30;;;11.00;99.90;;;;;;6161457;23;20008;-93
2022/06/21 01:41:46;;;;;;;6.55;3.20;;;10.90;99.90;;;;;;6196139;23;20030;-94
2022/06/21 01:44:40;;;;;;;6.95;3.20;;;10.60;99.90;;;;;;6193278;23;20096;-93
2022/06/21 01:47:25;;;;;;;6.07;3.17;;;10.70;99.90;;;;;;6189776;23;20027;-94
2022/06/21 01:52:39;;;;;;;5.78;3.40;;;11.10;99.90;;;;;;6182193;23;20831;-94
2022/06/21 01:55:32;;;;;;;8.23;3.00;;;11.00;99.90;;;;;;6179434;23;20017;-94
2022/06/21 01:58:12;;;;;;;8.75;4.03;;;11.10;99.90;;;;;;6188710;23;20005;-95
2022/06/21 02:00:43;;;;;;;6.72;3.33;;;11.00;99.90;;;;;;6204515;23;20450;-93
2022/06/21 02:03:15;;;;;;;9.93;3.80;;;10.40;99.90;;;;;;6172618;23;20052;-95
2022/06/21 02:05:50;;;;;;;11.43;4.35;;;11.00;99.90;;;;;;6172340;23;20019;-95
2022/06/21 02:08:20;;;;;;;7.97;4.15;;;10.90;99.90;;;;;;6179435;23;20012;-95
2022/06/21 02:11:01;;;;;;;10.60;5.03;;;10.90;99.90;;;;;;6184226;23;20059;-95
2022/06/21 02:13:34;;;;;;;12.18;4.97;;;10.90;99.90;;;;;;6172595;23;20100;-94
2022/06/21 02:16:20;;;;;;;9.25;4.72;;;10.80;99.90;;;;;;6171639;23;20052;-95
2022/06/21 02:18:58;;;;;;;7.28;4.68;;;10.80;99.90;;;;;;6177141;23;20371;-93
2022/06/21 02:21:42;;;;;;;8.57;5.10;;;10.70;99.90;;;;;;6188951;23;20020;-95
2022/06/21 02:24:14;;;;;;;8.95;5.65;;;10.70;99.90;;;;;;6181609;23;20438;-94
2022/06/21 02:26:40;;;;;;;11.80;5.75;;;10.70;99.90;;;;;;6171842;23;20091;-94
2022/06/21 02:29:08;;;;;;;15.70;6.20;;;10.70;99.90;;;;;;6149120;23;20023;-94
2022/06/21 02:31:35;;;;;;;11.20;6.13;;;10.60;99.90;;;;;;6177799;23;20092;-93
2022/06/21 02:34:11;;;;;;;9.00;6.10;;;10.60;99.90;;;;;;6165992;23;20034;-94
2022/06/21 02:36:55;;;;;;;11.57;5.22;;;10.60;99.90;;;;;;6192671;23;20001;-94
2022/06/21 02:39:26;;;;;;;8.23;5.25;;;10.50;99.90;;;;;;6184562;23;20035;-95
2022/06/21 02:42:07;;;;;;;8.57;5.70;;;9.60;99.90;;;;;;6189880;23;20000;-95
2022/06/21 02:44:45;;;;;;;16.67;6.35;;;10.60;99.90;;;;;;6185125;23;20338;-95
2022/06/21 02:47:42;;;;;;;8.85;5.90;;;10.50;99.90;;;;;;6171845;23;20079;-95
2022/06/21 02:50:26;;;;;;;11.23;6.10;;;10.50;99.90;;;;;;6171531;23;20017;-94
2022/06/21 02:52:55;;;;;;;10.10;7.32;;;10.40;99.90;;;;;;6169004;23;20099;-95
2022/06/21 02:55:39;;;;;;;18.13;7.72;;;10.40;99.90;;;;;;6145951;23;20013;-95
2022/06/21 02:58:26;;;;;;;13.73;8.93;;;10.40;99.90;;;;;;6169953;23;20020;-95
2022/06/21 03:00:53;;;;;;;14.50;9.38;;;10.40;99.90;;;;;;6170857;23;20015;-94
2022/06/21 03:03:25;;;;;;;14.32;8.10;;;10.40;99.90;;;;;;6169640;23;20071;-95
2022/06/21 03:05:56;;;;;;;13.93;8.02;;;10.50;99.90;;;;;;6185132;23;20005;-95
2022/06/21 03:08:23;;;;;;;12.82;7.80;;;10.50;99.90;;;;;;6169120;23;19996;-94
2022/06/21 03:10:51;;;;;;;15.75;7.70;;;10.50;99.90;;;;;;6183258;23;20016;-95
2022/06/21 03:13:26;;;;;;;10.20;6.80;;;10.40;99.90;;;;;;6160005;23;20068;-96
2022/06/21 03:16:03;;;;;;;8.95;5.85;;;9.80;99.90;;;;;;6173778;23;20398;-94
2022/06/21 03:18:35;;;;;;;10.93;5.95;;;10.40;99.90;;;;;;6169301;23;20044;-96
2022/06/21 03:21:03;;;;;;;6.95;5.28;;;10.40;99.90;;;;;;6172529;23;20022;-95
2022/06/21 03:23:29;;;;;;;12.07;5.43;;;10.30;99.90;;;;;;6177937;23;20016;-95
2022/06/21 03:26:02;;;;;;;11.25;5.70;;;10.40;99.90;;;;;;6126065;23;20017;-95
2022/06/21 03:28:35;;;;;;;10.90;5.30;;;10.40;99.90;;;;;;6178222;23;20028;-94
2022/06/21 03:31:12;;;;;;;8.10;5.20;;;10.40;99.90;;;;;;6179360;23;20016;-95
2022/06/21 03:33:42;;;;;;;9.95;5.30;;;10.50;99.90;;;;;;6186050;23;20017;-95
2022/06/21 03:36:12;;;;;;;10.85;6.10;;;9.80;99.90;;;;;;6181042;23;20020;-96
2022/06/21 03:38:45;;;;;;;12.38;6.03;;;10.60;99.90;;;;;;6169396;23;20366;-95
2022/06/21 03:44:06;;;;;;;11.18;5.32;;;10.60;99.90;;;;;;6198557;23;20021;-94
2022/06/21 03:46:56;;;;;;;7.63;5.65;;;10.60;99.90;;;;;;6173214;23;20016;-94
2022/06/21 03:49:33;;;;;;;8.23;5.93;;;10.60;99.90;;;;;;6161772;23;20016;-94
2022/06/21 03:52:05;;;;;;;11.45;6.40;;;10.60;99.90;;;;;;6174203;23;20016;-95
2022/06/21 03:54:31;;;;;;;8.80;7.03;;;10.50;99.90;;;;;;6168926;23;20103;-96
2022/06/21 03:57:15;;;;;;;10.68;6.55;;;10.60;99.90;;;;;;6177236;23;20012;-95
2022/06/21 03:59:58;;;;;;;9.98;6.20;;;10.60;99.90;;;;;;6184524;23;20012;-95
2022/06/21 04:02:36;;;;;;;9.93;6.75;;;10.60;99.90;;;;;;6181070;23;20016;-96
2022/06/21 04:05:11;;;;;;;11.90;7.35;;;10.70;99.90;;;;;;6169831;23;20012;-96
2022/06/21 04:07:44;;;;;;;11.68;7.22;;;10.70;99.90;;;;;;6172277;23;20036;-95
2022/06/21 04:10:09;;;;;;;12.02;6.93;;;10.80;99.90;;;;;;6173012;23;20443;-95
2022/06/21 04:13:11;;;;;;;10.02;7.00;;;10.80;99.90;;;;;;6177972;23;20007;-96
2022/06/21 04:15:54;;;;;;;9.52;6.88;;;10.90;99.90;;;;;;6118954;23;20383;-95
2022/06/21 04:18:31;;;;;;;12.20;7.45;;;10.90;99.90;;;;;;6175402;23;20012;-96
2022/06/21 04:21:08;;;;;;;20.05;7.63;;;11.00;99.90;;;;;;6170946;23;20012;-96
2022/06/21 04:24:05;;;;;;;11.02;6.07;;;11.00;99.90;;;;;;6171755;23;20013;-95
2022/06/21 04:26:51;;;;;;;11.68;6.78;;;11.10;99.90;;;;;;6171025;23;20016;-96
2022/06/21 04:29:22;;;;;;;10.32;6.88;;;11.10;99.90;;;;;;6171041;23;20032;-96
2022/06/21 04:32:29;;;;;;;10.38;6.10;;;11.10;99.90;;;;;;6170873;23;20067;-95
2022/06/21 04:35:23;;;;;;;10.18;7.07;;;11.20;99.90;;;;;;6171450;23;20012;-96
2022/06/21 04:38:10;;;;;;;12.23;6.23;;;11.30;99.90;;;;;;6173620;23;20068;-95
2022/06/21 04:41:05;;;;;;;10.70;7.13;;;11.40;99.90;;;;;;6176739;23;20618;-96
2022/06/21 04:43:50;;;;;;;8.77;6.32;;;11.40;99.90;;;;;;6181804;23;20023;-95
2022/06/21 04:46:41;;;;;;;10.32;6.40;;;11.50;99.90;;;;;;6177716;23;20072;-95
2022/06/21 04:49:21;;;;;;;8.45;6.57;;;11.60;99.90;;;;;;6180604;23;20059;-95
2022/06/21 04:52:01;;;;;;;12.68;6.82;;;11.70;99.90;;;;;;6173290;23;20328;-95
2022/06/21 04:54:31;;;;;;;12.32;7.03;;;11.80;99.90;;;;;;6172340;23;20375;-96
2022/06/21 04:57:16;;;;;;;7.75;6.10;;;11.90;99.90;;;;;;6174829;23;20447;-95
2022/06/21 05:00:06;;;;;;;7.93;5.50;;;12.00;99.90;;;;;;6182466;23;20019;-94
2022/06/21 05:02:46;;;;;;;7.88;6.22;;;12.10;99.90;;;;;;6182457;23;20087;-94
2022/06/21 05:05:15;;;;;;;14.43;6.75;;;12.20;99.90;;;;;;6186064;23;20043;-95
2022/06/21 05:07:52;;;;;;;10.07;5.63;;;12.30;99.90;;;;;;6179824;23;20020;-95
2022/06/21 05:10:28;;;;;;;11.93;5.68;;;12.40;99.90;;;;;;6176670;23;20020;-95
2022/06/21 05:12:59;;;;;;;11.40;5.45;;;12.50;99.90;;;;;;6179751;23;19996;-95
2022/06/21 05:15:29;;;;;;;8.95;6.03;;;12.50;99.90;;;;;;6172927;23;20316;-94
2022/06/21 05:18:10;;;;;;;9.23;6.43;;;12.60;99.90;;;;;;6172937;23;20031;-94
2022/06/21 05:20:47;;;;;;;9.05;5.70;;;12.70;99.90;;;;;;6178956;23;20012;-94
2022/06/21 05:23:14;;;;;;;9.88;5.43;;;11.80;99.90;;;;;;6185393;23;20047;-96
2022/06/21 05:25:44;;;;;;;6.95;5.30;;;12.70;99.90;;;;;;6131331;23;20027;-95
2022/06/21 05:28:37;;;;;;;9.25;4.88;;;12.70;99.90;;;;;;6187280;23;20016;-94
2022/06/21 05:31:17;;;;;;;6.50;4.88;;;12.70;99.90;;;;;;6183958;23;20024;-94
2022/06/21 05:33:55;;;;;;;13.88;5.68;;;12.70;99.90;;;;;;6179987;23;20016;-93
2022/06/21 05:36:32;;;;;;;7.18;5.32;;;12.70;99.90;;;;;;6183830;23;20350;-93
2022/06/21 05:39:30;;;;;;;7.88;4.90;;;12.70;99.90;;;;;;6193531;23;20063;-94
2022/06/21 05:42:03;;;;;;;8.48;4.47;;;12.70;99.90;;;;;;6194323;23;20056;-94
2022/06/21 05:44:41;;;;;;;9.95;4.40;;;12.70;99.90;;;;;;6191696;23;20020;-95
2022/06/21 05:47:21;;;;;;;8.52;4.18;;;12.80;99.90;;;;;;6184013;23;20080;-95
2022/06/21 05:49:48;;;;;;;7.85;4.25;;;12.80;99.90;;;;;;6186403;23;20024;-93
2022/06/21 05:52:20;;;;;;;7.30;3.53;;;12.90;99.90;;;;;;6170680;23;20009;-95
2022/06/21 05:54:58;;;;;;;6.20;3.50;;;12.90;99.90;;;;;;6171469;23;20063;-95
2022/06/21 05:57:27;;;;;;;7.13;4.45;;;13.10;99.90;;;;;;6178106;23;20012;-94
2022/06/21 05:59:57;;;;;;;6.82;4.13;;;13.10;99.90;;;;;;6181125;23;20013;-94
2022/06/21 06:02:45;;;;;;;7.82;3.60;;;13.10;99.90;;;;;;6186913;23;20036;-94
2022/06/21 06:05:32;;;;;;;7.72;3.70;;;13.20;99.90;;;;;;6184036;23;20019;-93
2022/06/21 06:08:09;;;;;;;7.03;3.45;;;13.20;99.90;;;;;;6180127;23;20092;-95
2022/06/21 06:10:39;;;;;;;7.22;3.00;;;13.30;99.90;;;;;;6173617;23;20020;-94
2022/06/21 06:13:39;;;;;;;7.38;3.08;;;13.40;99.90;;;;;;6178351;23;20016;-95
2022/06/21 06:16:25;;;;;;;5.45;3.13;;;13.40;99.90;;;;;;6112232;23;20092;-95
2022/06/21 06:19:00;;;;;;;4.20;3.20;;;13.50;99.90;;;;;;6175341;23;20012;-95
2022/06/21 06:21:30;;;;;;;;;;;13.60;99.90;;;;;;6175725;23;20016;-93
2022/06/21 06:24:02;;;;;;;3.92;2.75;;;13.90;99.90;;;;;;6171478;23;19912;-94
2022/06/21 06:26:37;;;;;;;6.90;3.17;;;14.10;99.90;;;;;;6171877;23;20017;-92
2022/06/21 06:29:22;;;;;;;8.07;3.28;;;14.40;99.90;;;;;;6167884;23;20016;-92
2022/06/21 06:32:19;;;;;;;5.07;2.38;;;14.60;99.90;;;;;;6168122;23;20017;-93
2022/06/21 06:34:48;;;;;;;6.20;2.65;;;14.60;99.90;;;;;;6158154;23;20027;-95
2022/06/21 06:37:33;;;;;;;4.63;2.75;;;14.60;99.90;;;;;;6168435;23;20055;-95
2022/06/21 06:40:01;;;;;;;5.38;2.50;;;15.10;99.90;;;;;;6169353;23;20009;-93
2022/06/21 06:42:34;;;;;;;3.75;2.40;;;15.20;99.90;;;;;;6143883;23;20009;-95
2022/06/21 06:45:06;;;;;;;4.55;2.50;;;15.00;99.90;;;;;;6168876;23;20016;-96
2022/06/21 06:47:38;;;;;;;3.47;2.42;;;15.00;99.90;;;;;;6171107;23;20009;-95
2022/06/21 06:50:07;;;;;;;4.97;2.30;;;15.20;99.90;;;;;;6170021;23;20027;-92
2022/06/21 06:52:54;;;;;;;6.80;2.45;;;15.60;99.90;;;;;;6168814;23;20012;-96
2022/06/21 06:55:30;;;;;;;4.35;2.70;;;16.20;99.90;;;;;;6170174;23;20020;-96
2022/06/21 06:58:14;;;;;;;5.07;2.25;;;16.20;99.90;;;;;;6167810;23;20012;-92
2022/06/21 07:01:04;;;;;;;6.03;2.80;;;16.50;99.90;;;;;;6170606;23;20016;-93
2022/06/21 07:03:52;;;;;;;6.10;2.80;;;16.20;99.90;;;;;;6170866;23;20021;-95
2022/06/21 07:06:23;;;;;;;5.35;2.50;;;15.90;99.90;;;;;;6170763;23;20023;-96
2022/06/21 07:09:08;;;;;;;7.68;2.50;;;15.80;99.90;;;;;;6168890;23;20024;-95
2022/06/21 07:11:43;;;;;;;5.28;2.28;;;15.80;99.90;;;;;;6168789;23;20016;-95
2022/06/21 07:14:23;;;;;;;4.43;1.95;;;15.40;99.90;;;;;;6172634;23;20012;-95
2022/06/21 07:16:58;;;;;;;6.00;2.38;;;15.60;99.90;;;;;;6174909;23;20020;-96
2022/06/21 07:19:24;;;;;;;5.70;2.10;;;15.80;99.90;;;;;;6173390;23;20012;-95
2022/06/21 07:21:50;;;;;;;4.60;2.10;;;16.00;99.90;;;;;;6124656;23;20017;-94
2022/06/21 07:24:19;;;;;;;5.28;2.35;;;16.20;99.90;;;;;;6121379;23;20012;-95
2022/06/21 07:26:48;;;;;;;6.10;2.05;;;16.70;99.90;;;;;;6149053;23;20052;-95
2022/06/21 07:30:13;;;;;;;8.23;2.50;;;16.90;99.90;;;;;;6173073;23;20039;-96
2022/06/21 07:33:07;;;;;;;6.20;2.45;;;17.10;99.90;;;;;;6166869;23;20016;-95
2022/06/21 07:35:47;;;;;;;5.47;2.30;;;17.20;99.90;;;;;;6183728;23;20019;-95
2022/06/21 07:38:33;;;;;;;5.28;2.22;;;16.60;99.90;;;;;;6178773;23;20020;-96
2022/06/21 07:41:23;;;;;;;4.38;2.10;;;17.10;99.90;;;;;;6184296;23;20009;-96
2022/06/21 07:47:22;;;;;;;3.25;1.92;;;17.40;99.90;;;;;;6231251;23;20023;-96
2022/06/21 07:49:54;;;;;;;7.25;2.25;;;16.90;99.90;;;;;;6170966;23;20044;-96
2022/06/21 07:52:34;;;;;;;4.28;1.80;;;17.00;99.90;;;;;;6171561;23;20017;-96
2022/06/21 08:08:41;;;;;;;4.32;2.50;;;17.50;99.90;;;;;;6196740;23;20048;-92
2022/06/21 08:11:15;;;;;;;5.55;2.42;;;17.60;99.90;;;;;;6177028;23;20017;-95
2022/06/21 08:13:43;;;;;;;6.20;2.83;;;17.70;99.90;;;;;;6174327;23;20104;-95
2022/06/21 08:16:14;;;;;;;4.05;2.13;;;17.70;99.90;;;;;;6146344;23;20024;-95
2022/06/21 08:18:47;;;;;;;3.38;2.17;;;17.40;99.90;;;;;;6171336;23;20013;-95
2022/06/21 08:21:17;;;;;;;4.47;2.28;;;17.60;99.90;;;;;;6170476;23;20048;-94
2022/06/21 08:23:55;;;;;;;3.30;2.22;;;17.60;99.90;;;;;;6172502;23;20028;-96
2022/06/21 08:26:31;;;;;;;4.85;2.33;;;17.50;99.90;;;;;;6174223;23;20347;-96
2022/06/21 08:29:01;;;;;;;7.13;2.55;;;17.70;99.90;;;;;;6179147;23;20347;-96
2022/06/21 08:31:45;;;;;;;6.75;1.90;;;18.10;99.90;;;;;;6185009;23;20084;-95
2022/06/21 08:35:08;;;;;;;3.72;1.80;;;18.20;99.90;;;;;;6188410;23;20096;-96
2022/06/21 08:37:46;;;;;;;5.18;2.63;;;17.80;99.90;;;;;;6177000;23;20012;-96
2022/06/21 08:40:34;;;;;;;4.53;2.00;;;18.50;99.90;;;;;;6176037;23;20013;-95
2022/06/21 08:43:30;;;;;;;5.63;1.80;;;18.50;99.90;;;;;;6173258;23;20044;-96
2022/06/21 08:45:55;;;;;;;;;;;18.70;99.90;;;;;;6125120;23;20067;-94
2022/06/21 08:48:56;;;;;;;5.70;1.92;;;18.80;99.90;;;;;;6177079;23;19912;-96
2022/06/21 08:51:30;;;;;;;4.45;1.70;;;18.40;99.90;;;;;;6176305;23;20019;-96
2022/06/21 08:54:19;;;;;;;2.58;1.48;;;19.00;99.90;;;;;;6170546;23;20016;-90
2022/06/21 08:57:26;;;;;;;2.97;1.60;;;19.20;99.90;;;;;;6173032;23;20108;-96
2022/06/21 09:00:10;;;;;;;3.95;1.98;;;19.10;99.90;;;;;;6173569;23;20013;-92
2022/06/21 09:02:46;;;;;;;1.88;1.27;;;19.10;99.90;;;;;;6182940;23;20451;-94
2022/06/21 09:05:28;;;;;;;4.38;1.67;;;19.60;99.90;;;;;;6180273;23;20040;-94
2022/06/21 09:08:13;;;;;;;3.65;1.30;;;18.70;99.90;;;;;;6175560;23;20390;-96
2022/06/21 09:10:52;;;;;;;4.03;1.75;;;18.90;99.90;;;;;;6179150;23;20024;-96
2022/06/21 09:13:18;;;;;;;4.00;2.00;;;18.90;99.90;;;;;;6180881;23;20431;-95
2022/06/21 09:15:44;;;;;;;4.53;1.55;;;19.30;99.90;;;;;;6173056;23;20107;-95
2022/06/21 09:18:31;;;;;;;3.95;1.88;;;19.70;99.90;;;;;;6176292;23;20095;-94
2022/06/21 09:21:08;;;;;;;4.60;1.45;;;20.20;99.90;;;;;;6173321;23;20015;-96
2022/06/21 09:27:41;;;;;;;4.90;1.98;;;19.60;99.90;;;;;;6230139;23;20035;-96
2022/06/21 09:30:13;;;;;;;3.17;1.77;;;20.60;99.90;;;;;;6184223;23;20013;-95
2022/06/21 09:32:55;;;;;;;2.40;1.40;;;21.10;99.90;;;;;;6182763;23;20016;-96
2022/06/21 09:35:42;;;;;;;4.97;2.10;;;20.20;99.90;;;;;;6183239;23;20036;-95
2022/06/21 09:44:18;;;;;;;;;;;;;;;;;;;;;
2022/06/21 09:51:57;;;;;;;;;;;;;;;;;;;;;
2022/06/21 10:10:14;;;;;;;2.88;1.30;;;22.80;99.90;;;;;;6007885;23;20018;-87
2022/06/21 12:13:17;;;;;;;2.53;1.30;;;23.80;5.70;;;;;;6117488;23;20048;-89
2022/06/21 12:16:24;;;;;;;2.95;1.45;;;24.10;1.00;;;;;;6068988;23;20081;-89
2022/06/21 12:46:13;;;;;;;2.53;1.50;;;24.80;1.00;;;;;;5924442;24;20442;-90
2022/06/21 13:15:05;;;;;;;2.83;1.40;;;23.80;1.00;;;;;;6095887;23;20066;-89
2022/06/21 13:18:38;;;;;;;2.22;1.35;;;24.20;1.00;;;;;;6043245;23;20018;-90
2022/06/21 13:32:09;;;;;;;;;;;;;;;;;;;;;
2022/06/21 14:58:06;;;;;;;1.92;1.50;;;23.00;43.00;;;;;;6208958;22;20025;-94
2022/06/21 15:01:01;;;;;;;7.20;2.47;;;23.10;33.80;;;;;;6176663;23;20048;-94
2022/06/21 15:03:43;;;;;;;3.90;1.80;;;22.80;30.60;;;;;;6132134;23;20456;-94
2022/06/21 15:06:19;;;;;;;4.55;2.40;;;22.90;30.50;;;;;;6182929;23;20017;-92
2022/06/21 15:08:52;;;;;;;5.00;2.25;;;22.00;99.90;;;;;;6180941;23;20020;-90
2022/06/21 15:11:59;;;;;;;2.97;2.17;;;22.10;99.90;;;;;;6161715;23;20105;-91
2022/06/21 15:14:48;;;;;;;5.63;2.40;;;22.10;99.90;;;;;;6185820;23;20055;-94
2022/06/21 15:17:30;;;;;;;5.07;2.40;;;21.60;99.90;;;;;;6184877;23;20012;-92
2022/06/21 15:20:04;;;;;;;6.35;2.60;;;21.30;99.90;;;;;;6185361;23;20021;-93
2022/06/21 15:22:37;;;;;;;5.18;2.33;;;20.70;99.90;;;;;;6173999;23;20387;-93
2022/06/21 15:25:28;;;;;;;5.55;2.70;;;20.50;99.90;;;;;;6188847;23;20023;-92
2022/06/21 15:28:13;;;;;;;6.88;3.20;;;20.60;99.90;;;;;;6181272;23;20020;-93
2022/06/21 15:30:53;;;;;;;8.25;2.75;;;20.50;99.90;;;;;;6176912;23;20013;-91
2022/06/21 15:33:32;;;;;;;6.50;2.22;;;21.00;99.90;;;;;;6183915;23;20013;-94
2022/06/21 15:36:09;;;;;;;4.63;2.40;;;20.40;99.90;;;;;;6176329;23;20013;-91
2022/06/21 15:38:45;;;;;;;11.73;2.80;;;20.30;99.90;;;;;;6181475;23;20004;-92
2022/06/21 15:41:21;;;;;;;4.82;2.38;;;20.50;99.90;;;;;;6177959;23;20447;-92
2022/06/21 15:43:51;;;;;;;4.97;2.75;;;20.60;99.90;;;;;;6167996;23;20008;-92
2022/06/21 15:46:25;;;;;;;3.88;2.45;;;20.40;99.90;;;;;;6173340;23;20068;-92
2022/06/21 15:52:04;;;;;;;4.00;2.70;;;19.90;99.90;;;;;;6193592;23;20020;-92
2022/06/21 15:54:44;;;;;;;5.70;2.90;;;19.80;99.90;;;;;;6170051;23;20012;-93
2022/06/21 15:57:46;;;;;;;5.88;2.60;;;19.70;99.90;;;;;;6179522;23;20023;-93
2022/06/21 16:00:32;;;;;;;7.75;2.83;;;19.80;99.90;;;;;;6186867;23;20100;-93
2022/06/21 16:03:13;;;;;;;8.60;3.60;;;20.00;99.90;;;;;;6175573;23;20071;-92
2022/06/21 16:05:49;;;;;;;7.28;2.80;;;20.00;99.90;;;;;;6171819;23;20012;-94
2022/06/21 16:08:20;;;;;;;4.75;2.67;;;19.80;99.90;;;;;;6169582;23;20478;-94
2022/06/21 16:10:52;;;;;;;4.30;2.78;;;19.90;99.90;;;;;;6168213;23;20019;-91
2022/06/21 16:13:22;;;;;;;5.05;3.20;;;19.70;99.90;;;;;;6168871;23;20013;-93
2022/06/21 16:16:00;;;;;;;5.75;3.05;;;19.50;99.90;;;;;;6169371;23;20019;-91
2022/06/21 16:21:43;;;;;;;6.05;2.70;;;19.10;99.90;;;;;;6238460;23;20025;-94
2022/06/21 16:24:37;;;;;;;5.10;2.60;;;19.40;99.90;;;;;;6175641;23;20020;-94
2022/06/21 16:27:38;;;;;;;5.07;2.60;;;19.40;99.90;;;;;;6164612;23;19997;-94
2022/06/21 16:30:27;;;;;;;6.90;2.92;;;19.50;99.90;;;;;;6185178;23;20019;-92
2022/06/21 16:33:15;;;;;;;4.80;2.42;;;19.50;99.90;;;;;;6196601;23;20052;-96
2022/06/21 16:36:03;;;;;;;5.45;2.58;;;19.10;99.90;;;;;;6177741;23;20288;-94
2022/06/21 16:38:41;;;;;;;6.82;2.83;;;18.90;99.90;;;;;;6175568;23;20008;-92
2022/06/21 16:44:44;;;;;;;5.15;2.83;;;18.70;99.90;;;;;;6206758;23;20096;-95
2022/06/21 16:47:21;;;;;;;4.47;2.70;;;18.40;99.90;;;;;;6184273;23;20389;-96
2022/06/21 16:49:54;;;;;;;4.63;2.97;;;18.60;99.90;;;;;;6203068;23;20013;-96
2022/06/21 16:52:31;;;;;;;4.95;2.78;;;18.50;99.90;;;;;;6172270;23;20016;-92
2022/06/21 16:55:06;;;;;;;5.22;2.55;;;18.40;99.90;;;;;;6176535;23;20013;-93
2022/06/21 16:57:37;;;;;;;4.97;2.60;;;17.40;99.90;;;;;;6203235;23;20067;-93
2022/06/21 17:00:35;;;;;;;5.65;2.97;;;17.30;99.90;;;;;;6221171;23;20049;-94
2022/06/21 17:03:51;;;;;;;4.72;2.40;;;18.20;99.90;;;;;;6196522;23;20024;-96
2022/06/21 17:06:40;;;;;;;4.55;2.75;;;18.30;99.90;;;;;;6179846;23;20107;-95
2022/06/21 17:09:09;;;;;;;5.53;2.88;;;18.30;99.90;;;;;;6181707;23;20073;-95
2022/06/21 17:12:00;;;;;;;3.00;2.40;;;18.20;99.90;;;;;;6173752;23;20020;-94
2022/06/21 17:14:58;;;;;;;6.75;3.00;;;18.30;99.90;;;;;;6178092;23;20066;-95
2022/06/21 17:17:53;;;;;;;4.38;2.65;;;18.10;99.90;;;;;;6209752;23;20017;-96
2022/06/21 17:20:46;;;;;;;6.55;2.70;;;18.40;99.90;;;;;;6231265;23;20064;-93
2022/06/21 17:23:24;;;;;;;4.57;2.63;;;18.40;99.90;;;;;;6178750;23;20024;-95
2022/06/21 17:26:08;;;;;;;6.47;2.67;;;18.50;99.90;;;;;;6182303;23;20091;-95
2022/06/21 17:28:42;;;;;;;4.40;2.78;;;18.40;99.90;;;;;;6177032;23;20068;-93
2022/06/21 17:31:33;;;;;;;4.70;2.72;;;18.30;99.90;;;;;;6177609;23;20040;-94
2022/06/21 17:34:29;;;;;;;5.38;2.95;;;18.20;99.90;;;;;;6185047;23;20020;-93
2022/06/21 17:37:35;;;;;;;5.35;2.85;;;18.00;99.90;;;;;;6184506;23;20036;-94
2022/06/21 17:40:23;;;;;;;7.13;3.10;;;17.90;99.90;;;;;;6181670;23;20012;-93
2022/06/21 17:42:58;;;;;;;7.55;3.85;;;18.00;99.90;;;;;;6178310;23;20024;-95
2022/06/21 17:45:30;;;;;;;4.97;2.92;;;17.90;99.90;;;;;;6180706;23;20124;-94
2022/06/21 17:48:08;;;;;;;4.90;3.30;;;18.00;99.90;;;;;;6180305;23;20064;-95
2022/06/21 17:50:56;;;;;;;5.82;3.13;;;17.90;99.90;;;;;;6186501;23;20013;-92
2022/06/21 17:53:30;;;;;;;6.68;3.20;;;17.90;99.90;;;;;;6183209;23;20012;-94
2022/06/21 17:56:27;;;;;;;7.40;3.20;;;18.00;99.90;;;;;;6184020;23;20016;-93
2022/06/21 17:58:57;;;;;;;5.45;3.40;;;17.90;99.90;;;;;;6182790;23;20100;-93
2022/06/21 18:01:36;;;;;;;5.57;3.13;;;18.00;99.90;;;;;;6176987;23;20017;-94
2022/06/21 18:04:19;;;;;;;7.68;3.10;;;18.10;99.90;;;;;;6173531;23;20005;-94
2022/06/21 18:10:56;;;;;;;6.93;3.58;;;18.10;99.90;;;;;;6209163;23;20020;-94
2022/06/21 18:20:47;;;;;;;3.88;2.70;;;18.10;99.90;;;;;;6114164;23;20025;-93
2022/06/21 18:23:32;;;;;;;5.68;3.38;;;18.20;99.90;;;;;;6139054;23;20018;-92
2022/06/21 18:26:07;;;;;;;;;;;18.00;99.90;;;;;;6121657;23;20005;-93
2022/06/21 18:29:02;;;;;;;5.38;3.03;;;17.80;99.90;;;;;;6122752;23;19960;-92
2022/06/21 18:31:58;;;;;;;5.28;2.80;;;17.40;99.90;;;;;;6145775;23;20022;-93
2022/06/21 18:34:27;;;;;;;7.05;2.83;;;17.40;99.90;;;;;;6148128;23;20010;-94
2022/06/21 18:37:05;;;;;;;5.65;2.80;;;17.50;99.90;;;;;;6118179;23;20049;-93
2022/06/21 18:39:49;;;;;;;5.70;3.03;;;17.50;99.90;;;;;;6146792;23;20061;-93
2022/06/21 18:42:15;;;;;;;6.13;3.17;;;17.40;99.90;;;;;;6136311;23;20017;-92
2022/06/21 18:45:18;;;;;;;5.53;2.80;;;17.30;99.90;;;;;;6152027;23;20070;-94
2022/06/21 18:48:15;;;;;;;5.93;3.00;;;17.10;99.90;;;;;;6184510;23;20138;-93
2022/06/21 18:51:16;;;;;;;6.47;2.60;;;17.00;99.90;;;;;;6185730;23;20020;-92
2022/06/21 18:53:48;;;;;;;5.82;2.72;;;17.00;99.90;;;;;;6175591;23;20012;-90
2022/06/21 18:56:20;;;;;;;3.20;2.47;;;17.00;99.90;;;;;;6170586;23;20017;-90
2022/06/21 18:59:10;;;;;;;6.00;2.78;;;16.90;99.90;;;;;;6169240;23;20142;-91
2022/06/21 19:01:50;;;;;;;4.28;2.60;;;16.80;99.90;;;;;;6166775;23;20043;-91
2022/06/21 19:08:29;;;;;;;5.78;3.05;;;16.80;99.90;;;;;;6194739;23;20051;-91
2022/06/21 19:11:04;;;;;;;5.47;2.80;;;16.80;99.90;;;;;;6173038;23;20047;-92
2022/06/21 19:13:41;;;;;;;7.43;3.20;;;16.70;99.90;;;;;;6171745;23;20067;-91
2022/06/21 19:16:47;;;;;;;5.38;3.15;;;16.70;99.90;;;;;;6191282;23;20068;-92
2022/06/21 19:19:43;;;;;;;5.22;3.17;;;16.60;99.90;;;;;;6187307;23;20020;-92
2022/06/21 19:22:09;;;;;;;5.60;3.00;;;16.40;99.90;;;;;;6174537;23;20039;-93
2022/06/21 19:25:01;;;;;;;5.78;2.90;;;16.30;99.90;;;;;;6168519;23;20020;-92
2022/06/21 19:27:38;;;;;;;4.78;3.22;;;16.30;99.90;;;;;;6167618;23;20016;-92
2022/06/21 19:30:31;;;;;;;10.00;3.50;;;16.20;99.90;;;;;;6185080;23;20012;-91
2022/06/21 19:33:35;;;;;;;4.68;3.20;;;16.10;99.90;;;;;;6175661;23;20013;-91
2022/06/21 19:36:13;;;;;;;7.05;3.55;;;16.10;99.90;;;;;;6170401;23;20012;-91
2022/06/21 19:39:28;;;;;;;6.97;3.47;;;16.00;99.90;;;;;;6166579;23;20008;-90
2022/06/21 19:42:32;;;;;;;5.10;3.15;;;15.90;99.90;;;;;;6149977;23;20458;-91
2022/06/21 19:45:38;;;;;;;7.40;3.80;;;15.80;99.90;;;;;;6143837;23;20020;-91
2022/06/21 19:48:13;;;;;;;5.22;3.20;;;15.60;99.90;;;;;;6179035;23;20450;-91
2022/06/21 19:50:42;;;;;;;5.60;4.00;;;15.50;99.90;;;;;;6168460;23;20048;-92
2022/06/21 19:53:37;;;;;;;6.55;3.70;;;15.30;99.90;;;;;;6169154;23;20100;-91
2022/06/21 19:56:15;;;;;;;6.43;4.50;;;15.20;99.90;;;;;;6167349;23;20047;-91
2022/06/21 19:58:48;;;;;;;8.88;3.88;;;15.10;99.90;;;;;;6177052;23;20016;-91
2022/06/21 20:01:17;;;;;;;5.50;3.88;;;15.00;99.90;;;;;;6187298;23;20027;-91
2022/06/21 20:04:08;;;;;;;5.80;4.18;;;14.90;99.90;;;;;;6172451;23;20059;-92
2022/06/21 20:06:36;;;;;;;5.57;4.13;;;15.00;99.90;;;;;;6168019;23;20013;-91